sensor_id;sensor_type;location;lat;lon;timestamp;temperature;humidity
64718;DHT22;62506;46.070;14.492;2023-06-19T00:02:14;24.00;54.60
64718;DHT22;62506;46.070;14.492;2023-06-19T00:04:40;24.10;54.60
64718;DHT22;62506;46.070;14.492;2023-06-19T00:07:05;24.00;54.40
64718;DHT22;62506;46.070;14.492;2023-06-19T00:09:32;24.00;54.40
64718;DHT22;62506;46.070;14.492;2023-06-19T00:11:58;24.00;54.40
64718;DHT22;62506;46.070;14.492;2023-06-19T00:14:25;24.00;54.40
64718;DHT22;62506;46.070;14.492;2023-06-19T00:16:50;24.00;54.60
64718;DHT22;62506;46.070;14.492;2023-06-19T00:19:16;24.00;54.50
64718;DHT22;62506;46.070;14.492;2023-06-19T00:21:42;24.00;54.70
64718;DHT22;62506;46.070;14.492;2023-06-19T00:24:08;24.00;54.60
64718;DHT22;62506;46.070;14.492;2023-06-19T00:26:34;24.00;54.60
64718;DHT22;62506;46.070;14.492;2023-06-19T00:29:00;24.00;54.70
64718;DHT22;62506;46.070;14.492;2023-06-19T00:31:25;24.00;54.60
64718;DHT22;62506;46.070;14.492;2023-06-19T00:33:52;24.00;54.80
64718;DHT22;62506;46.070;14.492;2023-06-19T00:36:18;24.00;54.90
64718;DHT22;62506;46.070;14.492;2023-06-19T00:38:45;24.00;54.70
64718;DHT22;62506;46.070;14.492;2023-06-19T00:41:11;24.00;54.80
64718;DHT22;62506;46.070;14.492;2023-06-19T00:43:36;24.00;54.90
64718;DHT22;62506;46.070;14.492;2023-06-19T00:46:02;24.00;54.80
64718;DHT22;62506;46.070;14.492;2023-06-19T00:48:28;24.00;54.90
64718;DHT22;62506;46.070;14.492;2023-06-19T00:50:54;24.10;54.90
64718;DHT22;62506;46.070;14.492;2023-06-19T00:53:21;24.00;54.80
64718;DHT22;62506;46.070;14.492;2023-06-19T00:55:47;24.10;55.10
64718;DHT22;62506;46.070;14.492;2023-06-19T00:58:13;24.10;55.00
64718;DHT22;62506;46.070;14.492;2023-06-19T01:00:38;24.00;54.90
64718;DHT22;62506;46.070;14.492;2023-06-19T01:03:04;24.00;54.90
64718;DHT22;62506;46.070;14.492;2023-06-19T01:05:30;24.10;55.00
64718;DHT22;62506;46.070;14.492;2023-06-19T01:07:59;24.00;54.90
64718;DHT22;62506;46.070;14.492;2023-06-19T01:10:27;24.00;55.00
64718;DHT22;62506;46.070;14.492;2023-06-19T01:12:57;24.00;55.00
64718;DHT22;62506;46.070;14.492;2023-06-19T01:15:24;24.00;55.00
64718;DHT22;62506;46.070;14.492;2023-06-19T01:17:50;24.00;55.00
64718;DHT22;62506;46.070;14.492;2023-06-19T01:20:16;24.00;55.10
64718;DHT22;62506;46.070;14.492;2023-06-19T01:22:41;24.00;55.10
64718;DHT22;62506;46.070;14.492;2023-06-19T01:25:09;24.00;55.20
64718;DHT22;62506;46.070;14.492;2023-06-19T01:27:35;24.00;55.10
64718;DHT22;62506;46.070;14.492;2023-06-19T01:30:01;24.00;55.10
64718;DHT22;62506;46.070;14.492;2023-06-19T01:34:53;24.00;55.20
64718;DHT22;62506;46.070;14.492;2023-06-19T01:37:19;24.00;55.90
64718;DHT22;62506;46.070;14.492;2023-06-19T01:39:45;24.00;55.10
64718;DHT22;62506;46.070;14.492;2023-06-19T01:42:12;24.00;55.30
64718;DHT22;62506;46.070;14.492;2023-06-19T01:44:38;24.00;55.10
64718;DHT22;62506;46.070;14.492;2023-06-19T01:47:10;24.00;55.10
64718;DHT22;62506;46.070;14.492;2023-06-19T01:49:36;24.00;55.10
64718;DHT22;62506;46.070;14.492;2023-06-19T01:52:02;24.00;55.10
64718;DHT22;62506;46.070;14.492;2023-06-19T01:54:27;24.00;55.10
64718;DHT22;62506;46.070;14.492;2023-06-19T01:56:53;24.10;55.10
64718;DHT22;62506;46.070;14.492;2023-06-19T01:59:18;24.10;55.10
64718;DHT22;62506;46.070;14.492;2023-06-19T02:01:44;24.00;55.40
64718;DHT22;62506;46.070;14.492;2023-06-19T02:04:09;24.00;55.10
64718;DHT22;62506;46.070;14.492;2023-06-19T02:06:35;24.10;55.10
64718;DHT22;62506;46.070;14.492;2023-06-19T02:09:00;24.10;55.30
64718;DHT22;62506;46.070;14.492;2023-06-19T02:11:26;24.00;55.10
64718;DHT22;62506;46.070;14.492;2023-06-19T02:13:51;24.10;55.20
64718;DHT22;62506;46.070;14.492;2023-06-19T02:16:17;24.10;55.10
64718;DHT22;62506;46.070;14.492;2023-06-19T02:18:43;24.10;55.10
64718;DHT22;62506;46.070;14.492;2023-06-19T02:21:08;24.10;55.30
64718;DHT22;62506;46.070;14.492;2023-06-19T02:23:34;24.00;55.10
64718;DHT22;62506;46.070;14.492;2023-06-19T02:25:59;24.00;55.50
64718;DHT22;62506;46.070;14.492;2023-06-19T02:28:25;24.00;55.10
64718;DHT22;62506;46.070;14.492;2023-06-19T02:30:52;24.00;55.10
64718;DHT22;62506;46.070;14.492;2023-06-19T02:33:17;24.10;55.20
64718;DHT22;62506;46.070;14.492;2023-06-19T02:35:43;24.00;55.10
64718;DHT22;62506;46.070;14.492;2023-06-19T02:38:09;24.00;55.20
64718;DHT22;62506;46.070;14.492;2023-06-19T02:40:35;24.00;55.50
64718;DHT22;62506;46.070;14.492;2023-06-19T02:43:00;24.00;55.40
64718;DHT22;62506;46.070;14.492;2023-06-19T02:45:26;24.00;55.30
64718;DHT22;62506;46.070;14.492;2023-06-19T02:47:51;24.00;55.30
64718;DHT22;62506;46.070;14.492;2023-06-19T02:50:17;24.00;55.40
64718;DHT22;62506;46.070;14.492;2023-06-19T02:52:43;24.00;55.50
64718;DHT22;62506;46.070;14.492;2023-06-19T02:55:08;24.00;55.40
64718;DHT22;62506;46.070;14.492;2023-06-19T02:57:34;24.00;55.40
64718;DHT22;62506;46.070;14.492;2023-06-19T02:59:59;23.90;55.40
64718;DHT22;62506;46.070;14.492;2023-06-19T03:02:25;23.90;55.50
64718;DHT22;62506;46.070;14.492;2023-06-19T03:04:51;24.00;55.50
64718;DHT22;62506;46.070;14.492;2023-06-19T03:07:17;23.90;55.50
64718;DHT22;62506;46.070;14.492;2023-06-19T03:09:42;23.90;56.20
64718;DHT22;62506;46.070;14.492;2023-06-19T03:12:08;23.90;55.40
64718;DHT22;62506;46.070;14.492;2023-06-19T03:14:34;23.90;55.50
64718;DHT22;62506;46.070;14.492;2023-06-19T03:16:59;23.90;55.50
64718;DHT22;62506;46.070;14.492;2023-06-19T03:19:25;23.90;55.50
64718;DHT22;62506;46.070;14.492;2023-06-19T03:21:50;23.90;55.50
64718;DHT22;62506;46.070;14.492;2023-06-19T03:24:16;23.90;55.50
64718;DHT22;62506;46.070;14.492;2023-06-19T03:26:41;23.90;55.50
64718;DHT22;62506;46.070;14.492;2023-06-19T03:29:07;23.90;55.70
64718;DHT22;62506;46.070;14.492;2023-06-19T03:31:32;23.90;55.40
64718;DHT22;62506;46.070;14.492;2023-06-19T03:33:58;23.90;55.40
64718;DHT22;62506;46.070;14.492;2023-06-19T03:36:23;23.90;55.50
64718;DHT22;62506;46.070;14.492;2023-06-19T03:38:49;23.90;55.40
64718;DHT22;62506;46.070;14.492;2023-06-19T03:41:14;24.00;55.50
64718;DHT22;62506;46.070;14.492;2023-06-19T03:43:40;24.00;55.50
64718;DHT22;62506;46.070;14.492;2023-06-19T03:46:05;23.90;55.50
64718;DHT22;62506;46.070;14.492;2023-06-19T03:48:31;24.00;55.40
64718;DHT22;62506;46.070;14.492;2023-06-19T03:50:56;24.00;55.60
64718;DHT22;62506;46.070;14.492;2023-06-19T03:53:22;24.00;55.50
64718;DHT22;62506;46.070;14.492;2023-06-19T03:55:47;24.00;55.40
64718;DHT22;62506;46.070;14.492;2023-06-19T03:58:13;24.00;55.50
64718;DHT22;62506;46.070;14.492;2023-06-19T04:00:38;23.90;55.50
64718;DHT22;62506;46.070;14.492;2023-06-19T04:03:04;24.00;55.50
64718;DHT22;62506;46.070;14.492;2023-06-19T04:05:29;24.00;55.50
64718;DHT22;62506;46.070;14.492;2023-06-19T04:07:55;23.90;55.50
64718;DHT22;62506;46.070;14.492;2023-06-19T04:10:20;23.90;55.50
64718;DHT22;62506;46.070;14.492;2023-06-19T04:12:46;23.90;55.50
64718;DHT22;62506;46.070;14.492;2023-06-19T04:15:13;23.90;55.50
64718;DHT22;62506;46.070;14.492;2023-06-19T04:17:38;23.90;55.50
64718;DHT22;62506;46.070;14.492;2023-06-19T04:20:04;23.90;55.50
64718;DHT22;62506;46.070;14.492;2023-06-19T04:22:39;24.00;55.60
64718;DHT22;62506;46.070;14.492;2023-06-19T04:25:08;23.90;55.50
64718;DHT22;62506;46.070;14.492;2023-06-19T04:27:34;24.00;55.60
64718;DHT22;62506;46.070;14.492;2023-06-19T04:30:00;24.00;55.60
64718;DHT22;62506;46.070;14.492;2023-06-19T04:32:25;24.00;55.50
64718;DHT22;62506;46.070;14.492;2023-06-19T04:34:51;24.00;55.60
64718;DHT22;62506;46.070;14.492;2023-06-19T04:37:16;24.00;55.80
64718;DHT22;62506;46.070;14.492;2023-06-19T04:39:44;24.00;55.70
64718;DHT22;62506;46.070;14.492;2023-06-19T04:42:13;24.00;55.60
64718;DHT22;62506;46.070;14.492;2023-06-19T04:44:47;24.00;55.70
64718;DHT22;62506;46.070;14.492;2023-06-19T04:47:13;24.00;55.60
64718;DHT22;62506;46.070;14.492;2023-06-19T04:49:39;24.00;55.60
64718;DHT22;62506;46.070;14.492;2023-06-19T04:52:04;24.00;55.70
64718;DHT22;62506;46.070;14.492;2023-06-19T04:54:30;24.00;55.80
64718;DHT22;62506;46.070;14.492;2023-06-19T04:56:57;24.00;55.80
64718;DHT22;62506;46.070;14.492;2023-06-19T04:59:23;24.00;55.90
64718;DHT22;62506;46.070;14.492;2023-06-19T05:01:48;24.00;55.90
64718;DHT22;62506;46.070;14.492;2023-06-19T05:04:14;24.00;56.00
64718;DHT22;62506;46.070;14.492;2023-06-19T05:06:39;24.00;55.90
64718;DHT22;62506;46.070;14.492;2023-06-19T05:09:05;24.00;55.60
64718;DHT22;62506;46.070;14.492;2023-06-19T05:11:30;24.10;56.00
64718;DHT22;62506;46.070;14.492;2023-06-19T05:13:56;24.00;55.60
64718;DHT22;62506;46.070;14.492;2023-06-19T05:16:22;24.10;55.60
64718;DHT22;62506;46.070;14.492;2023-06-19T05:18:48;24.10;55.90
64718;DHT22;62506;46.070;14.492;2023-06-19T05:21:14;24.00;55.70
64718;DHT22;62506;46.070;14.492;2023-06-19T05:23:40;24.10;55.80
64718;DHT22;62506;46.070;14.492;2023-06-19T05:26:05;24.10;55.90
64718;DHT22;62506;46.070;14.492;2023-06-19T05:28:31;24.10;55.70
64718;DHT22;62506;46.070;14.492;2023-06-19T05:30:57;24.10;56.30
64718;DHT22;62506;46.070;14.492;2023-06-19T05:33:22;24.00;55.70
64718;DHT22;62506;46.070;14.492;2023-06-19T05:35:49;24.10;55.90
64718;DHT22;62506;46.070;14.492;2023-06-19T05:38:18;24.10;55.90
64718;DHT22;62506;46.070;14.492;2023-06-19T05:40:43;24.10;55.70
64718;DHT22;62506;46.070;14.492;2023-06-19T05:43:09;24.10;55.80
64718;DHT22;62506;46.070;14.492;2023-06-19T05:45:34;24.20;55.90
64718;DHT22;62506;46.070;14.492;2023-06-19T05:48:00;24.20;55.80
64718;DHT22;62506;46.070;14.492;2023-06-19T05:50:25;24.20;55.50
64718;DHT22;62506;46.070;14.492;2023-06-19T05:52:51;24.20;55.80
64718;DHT22;62506;46.070;14.492;2023-06-19T05:55:16;24.10;54.20
64718;DHT22;62506;46.070;14.492;2023-06-19T05:57:42;24.00;52.60
64718;DHT22;62506;46.070;14.492;2023-06-19T06:00:08;23.80;51.60
64718;DHT22;62506;46.070;14.492;2023-06-19T06:02:36;23.70;51.40
64718;DHT22;62506;46.070;14.492;2023-06-19T06:05:02;23.60;51.80
64718;DHT22;62506;46.070;14.492;2023-06-19T06:07:27;23.60;52.30
64718;DHT22;62506;46.070;14.492;2023-06-19T06:09:54;23.60;52.00
64718;DHT22;62506;46.070;14.492;2023-06-19T06:12:19;23.60;51.50
64718;DHT22;62506;46.070;14.492;2023-06-19T06:14:45;23.60;50.90
64718;DHT22;62506;46.070;14.492;2023-06-19T06:17:10;23.70;50.60
64718;DHT22;62506;46.070;14.492;2023-06-19T06:19:36;23.70;50.80
64718;DHT22;62506;46.070;14.492;2023-06-19T06:22:02;23.60;51.10
64718;DHT22;62506;46.070;14.492;2023-06-19T06:24:28;23.70;51.10
64718;DHT22;62506;46.070;14.492;2023-06-19T06:26:53;23.80;51.00
64718;DHT22;62506;46.070;14.492;2023-06-19T06:29:19;23.80;51.00
64718;DHT22;62506;46.070;14.492;2023-06-19T06:31:45;23.80;51.20
64718;DHT22;62506;46.070;14.492;2023-06-19T06:34:11;23.80;50.60
64718;DHT22;62506;46.070;14.492;2023-06-19T06:36:38;23.80;50.40
64718;DHT22;62506;46.070;14.492;2023-06-19T06:39:03;23.80;50.40
64718;DHT22;62506;46.070;14.492;2023-06-19T06:41:29;23.80;49.60
64718;DHT22;62506;46.070;14.492;2023-06-19T06:43:55;23.80;49.60
64718;DHT22;62506;46.070;14.492;2023-06-19T06:46:30;23.80;49.70
64718;DHT22;62506;46.070;14.492;2023-06-19T06:48:55;23.80;49.60
64718;DHT22;62506;46.070;14.492;2023-06-19T06:51:21;23.90;50.30
64718;DHT22;62506;46.070;14.492;2023-06-19T06:53:47;23.90;50.50
64718;DHT22;62506;46.070;14.492;2023-06-19T06:56:13;23.90;50.30
64718;DHT22;62506;46.070;14.492;2023-06-19T06:58:42;24.00;50.60
64718;DHT22;62506;46.070;14.492;2023-06-19T07:01:09;24.00;50.70
64718;DHT22;62506;46.070;14.492;2023-06-19T07:03:34;24.00;50.60
64718;DHT22;62506;46.070;14.492;2023-06-19T07:06:00;24.00;50.00
64718;DHT22;62506;46.070;14.492;2023-06-19T07:08:26;24.00;50.00
64718;DHT22;62506;46.070;14.492;2023-06-19T07:10:52;24.00;50.00
64718;DHT22;62506;46.070;14.492;2023-06-19T07:13:18;24.00;50.00
64718;DHT22;62506;46.070;14.492;2023-06-19T07:15:43;24.00;50.10
64718;DHT22;62506;46.070;14.492;2023-06-19T07:18:09;24.10;50.60
64718;DHT22;62506;46.070;14.492;2023-06-19T07:20:34;24.10;50.40
64718;DHT22;62506;46.070;14.492;2023-06-19T07:23:00;24.10;50.00
64718;DHT22;62506;46.070;14.492;2023-06-19T07:25:26;24.10;50.10
64718;DHT22;62506;46.070;14.492;2023-06-19T07:27:52;24.20;50.40
64718;DHT22;62506;46.070;14.492;2023-06-19T07:30:17;24.20;50.00
64718;DHT22;62506;46.070;14.492;2023-06-19T07:32:43;24.20;50.10
64718;DHT22;62506;46.070;14.492;2023-06-19T07:35:09;24.20;50.10
64718;DHT22;62506;46.070;14.492;2023-06-19T07:37:34;24.20;50.30
64718;DHT22;62506;46.070;14.492;2023-06-19T07:40:00;24.20;50.40
64718;DHT22;62506;46.070;14.492;2023-06-19T07:42:25;24.20;50.10
64718;DHT22;62506;46.070;14.492;2023-06-19T07:44:51;24.30;50.00
64718;DHT22;62506;46.070;14.492;2023-06-19T07:47:16;24.30;50.00
64718;DHT22;62506;46.070;14.492;2023-06-19T07:49:43;24.30;50.00
64718;DHT22;62506;46.070;14.492;2023-06-19T07:52:09;24.30;50.20
64718;DHT22;62506;46.070;14.492;2023-06-19T07:54:35;24.30;50.60
64718;DHT22;62506;46.070;14.492;2023-06-19T07:57:00;24.30;50.80
64718;DHT22;62506;46.070;14.492;2023-06-19T07:59:26;24.30;50.80
64718;DHT22;62506;46.070;14.492;2023-06-19T08:01:51;24.30;51.00
64718;DHT22;62506;46.070;14.492;2023-06-19T08:04:17;24.30;50.90
64718;DHT22;62506;46.070;14.492;2023-06-19T08:06:42;24.30;51.10
64718;DHT22;62506;46.070;14.492;2023-06-19T08:09:08;24.30;51.10
64718;DHT22;62506;46.070;14.492;2023-06-19T08:11:34;24.30;51.40
64718;DHT22;62506;46.070;14.492;2023-06-19T08:14:00;24.30;51.30
64718;DHT22;62506;46.070;14.492;2023-06-19T08:16:26;24.40;51.30
64718;DHT22;62506;46.070;14.492;2023-06-19T08:18:52;24.30;51.40
64718;DHT22;62506;46.070;14.492;2023-06-19T08:21:17;24.30;51.50
64718;DHT22;62506;46.070;14.492;2023-06-19T08:23:43;24.30;51.50
64718;DHT22;62506;46.070;14.492;2023-06-19T08:26:09;24.40;51.60
64718;DHT22;62506;46.070;14.492;2023-06-19T08:28:35;24.40;51.70
64718;DHT22;62506;46.070;14.492;2023-06-19T08:31:00;24.40;51.70
64718;DHT22;62506;46.070;14.492;2023-06-19T08:33:26;24.40;51.70
64718;DHT22;62506;46.070;14.492;2023-06-19T08:35:51;24.40;51.70
64718;DHT22;62506;46.070;14.492;2023-06-19T08:38:18;24.50;51.80
64718;DHT22;62506;46.070;14.492;2023-06-19T08:40:43;24.50;51.80
64718;DHT22;62506;46.070;14.492;2023-06-19T08:43:09;24.60;52.00
64718;DHT22;62506;46.070;14.492;2023-06-19T08:45:35;24.60;51.90
64718;DHT22;62506;46.070;14.492;2023-06-19T08:48:01;24.60;52.00
64718;DHT22;62506;46.070;14.492;2023-06-19T08:50:29;24.50;52.00
64718;DHT22;62506;46.070;14.492;2023-06-19T08:52:55;24.60;52.10
64718;DHT22;62506;46.070;14.492;2023-06-19T08:55:21;24.60;52.10
64718;DHT22;62506;46.070;14.492;2023-06-19T08:57:47;24.60;52.20
64718;DHT22;62506;46.070;14.492;2023-06-19T09:00:22;24.60;52.20
64718;DHT22;62506;46.070;14.492;2023-06-19T09:02:48;24.60;52.50
64718;DHT22;62506;46.070;14.492;2023-06-19T09:05:14;24.70;52.40
64718;DHT22;62506;46.070;14.492;2023-06-19T09:07:40;24.70;52.30
64718;DHT22;62506;46.070;14.492;2023-06-19T09:13:01;24.80;52.10
64718;DHT22;62506;46.070;14.492;2023-06-19T09:15:31;24.80;52.20
64718;DHT22;62506;46.070;14.492;2023-06-19T09:18:03;24.80;52.70
64718;DHT22;62506;46.070;14.492;2023-06-19T09:20:29;24.80;52.40
64718;DHT22;62506;46.070;14.492;2023-06-19T09:22:58;24.80;52.50
64718;DHT22;62506;46.070;14.492;2023-06-19T09:25:23;24.70;52.70
64718;DHT22;62506;46.070;14.492;2023-06-19T09:27:50;24.70;52.90
64718;DHT22;62506;46.070;14.492;2023-06-19T09:30:16;24.70;53.10
64718;DHT22;62506;46.070;14.492;2023-06-19T09:32:41;24.70;53.20
64718;DHT22;62506;46.070;14.492;2023-06-19T09:35:07;24.70;52.90
64718;DHT22;62506;46.070;14.492;2023-06-19T09:37:32;24.70;52.40
64718;DHT22;62506;46.070;14.492;2023-06-19T09:39:59;24.70;51.90
64718;DHT22;62506;46.070;14.492;2023-06-19T09:42:31;24.70;52.00
64718;DHT22;62506;46.070;14.492;2023-06-19T09:45:15;24.70;52.60
64718;DHT22;62506;46.070;14.492;2023-06-19T09:47:45;24.70;52.50
64718;DHT22;62506;46.070;14.492;2023-06-19T09:50:12;24.70;52.80
64718;DHT22;62506;46.070;14.492;2023-06-19T09:52:38;24.70;52.90
64718;DHT22;62506;46.070;14.492;2023-06-19T09:55:05;24.60;52.90
64718;DHT22;62506;46.070;14.492;2023-06-19T09:57:32;24.60;53.40
64718;DHT22;62506;46.070;14.492;2023-06-19T09:59:58;24.60;53.10
64718;DHT22;62506;46.070;14.492;2023-06-19T10:02:25;24.60;53.30
64718;DHT22;62506;46.070;14.492;2023-06-19T10:04:55;24.60;53.20
64718;DHT22;62506;46.070;14.492;2023-06-19T10:07:25;24.60;53.30
64718;DHT22;62506;46.070;14.492;2023-06-19T10:09:59;24.60;53.30
64718;DHT22;62506;46.070;14.492;2023-06-19T10:12:35;24.60;53.30
64718;DHT22;62506;46.070;14.492;2023-06-19T10:17:37;24.60;53.40
64718;DHT22;62506;46.070;14.492;2023-06-19T10:20:03;24.60;53.50
64718;DHT22;62506;46.070;14.492;2023-06-19T10:22:30;24.60;53.50
64718;DHT22;62506;46.070;14.492;2023-06-19T10:24:55;24.60;53.40
64718;DHT22;62506;46.070;14.492;2023-06-19T10:27:21;24.70;53.50
64718;DHT22;62506;46.070;14.492;2023-06-19T10:29:54;24.70;53.70
64718;DHT22;62506;46.070;14.492;2023-06-19T10:32:20;24.60;53.90
64718;DHT22;62506;46.070;14.492;2023-06-19T10:34:46;24.70;54.10
64718;DHT22;62506;46.070;14.492;2023-06-19T10:37:15;24.70;53.90
64718;DHT22;62506;46.070;14.492;2023-06-19T10:39:42;24.60;53.90
64718;DHT22;62506;46.070;14.492;2023-06-19T10:42:08;24.70;54.60
64718;DHT22;62506;46.070;14.492;2023-06-19T10:44:34;24.60;54.00
64718;DHT22;62506;46.070;14.492;2023-06-19T10:47:00;24.60;54.00
64718;DHT22;62506;46.070;14.492;2023-06-19T10:49:26;24.70;54.00
64718;DHT22;62506;46.070;14.492;2023-06-19T10:51:52;24.70;54.50
64718;DHT22;62506;46.070;14.492;2023-06-19T10:54:22;24.60;54.40
64718;DHT22;62506;46.070;14.492;2023-06-19T10:56:48;24.70;54.40
64718;DHT22;62506;46.070;14.492;2023-06-19T10:59:14;24.70;54.50
64718;DHT22;62506;46.070;14.492;2023-06-19T11:04:05;24.70;54.50
64718;DHT22;62506;46.070;14.492;2023-06-19T11:06:31;24.70;54.50
64718;DHT22;62506;46.070;14.492;2023-06-19T11:08:57;24.70;54.50
64718;DHT22;62506;46.070;14.492;2023-06-19T11:11:22;24.70;54.60
64718;DHT22;62506;46.070;14.492;2023-06-19T11:13:48;24.70;54.60
64718;DHT22;62506;46.070;14.492;2023-06-19T11:16:14;24.70;54.50
64718;DHT22;62506;46.070;14.492;2023-06-19T11:18:40;24.70;55.00
64718;DHT22;62506;46.070;14.492;2023-06-19T11:21:05;24.80;54.50
64718;DHT22;62506;46.070;14.492;2023-06-19T11:23:31;24.80;54.40
64718;DHT22;62506;46.070;14.492;2023-06-19T11:26:03;24.90;54.40
64718;DHT22;62506;46.070;14.492;2023-06-19T11:28:29;24.90;54.40
64718;DHT22;62506;46.070;14.492;2023-06-19T11:30:58;24.90;54.50
64718;DHT22;62506;46.070;14.492;2023-06-19T11:33:23;24.90;54.50
64718;DHT22;62506;46.070;14.492;2023-06-19T11:35:53;24.90;54.60
64718;DHT22;62506;46.070;14.492;2023-06-19T11:38:19;25.00;54.70
64718;DHT22;62506;46.070;14.492;2023-06-19T11:40:45;25.00;54.70
64718;DHT22;62506;46.070;14.492;2023-06-19T11:43:11;25.00;54.70
64718;DHT22;62506;46.070;14.492;2023-06-19T11:45:47;25.00;54.70
64718;DHT22;62506;46.070;14.492;2023-06-19T11:48:13;25.00;54.90
64718;DHT22;62506;46.070;14.492;2023-06-19T11:50:39;25.00;54.80
64718;DHT22;62506;46.070;14.492;2023-06-19T11:53:04;25.00;54.90
64718;DHT22;62506;46.070;14.492;2023-06-19T11:55:30;25.00;54.30
64718;DHT22;62506;46.070;14.492;2023-06-19T11:57:55;25.00;53.90
64718;DHT22;62506;46.070;14.492;2023-06-19T12:00:21;25.00;54.00
64718;DHT22;62506;46.070;14.492;2023-06-19T12:02:47;24.90;54.50
64718;DHT22;62506;46.070;14.492;2023-06-19T12:05:13;25.00;54.60
64718;DHT22;62506;46.070;14.492;2023-06-19T12:07:39;24.90;54.50
64718;DHT22;62506;46.070;14.492;2023-06-19T12:10:05;24.90;54.50
64718;DHT22;62506;46.070;14.492;2023-06-19T12:12:35;24.90;54.80
64718;DHT22;62506;46.070;14.492;2023-06-19T12:15:01;24.80;54.80
64718;DHT22;62506;46.070;14.492;2023-06-19T12:17:27;24.80;55.00
64718;DHT22;62506;46.070;14.492;2023-06-19T12:19:52;24.80;55.10
64718;DHT22;62506;46.070;14.492;2023-06-19T12:22:18;24.70;55.30
64718;DHT22;62506;46.070;14.492;2023-06-19T12:24:44;24.70;55.30
64718;DHT22;62506;46.070;14.492;2023-06-19T12:27:09;24.70;55.40
64718;DHT22;62506;46.070;14.492;2023-06-19T12:29:34;24.60;55.50
64718;DHT22;62506;46.070;14.492;2023-06-19T12:32:01;24.60;55.50
64718;DHT22;62506;46.070;14.492;2023-06-19T12:34:28;24.60;55.60
64718;DHT22;62506;46.070;14.492;2023-06-19T12:36:53;24.60;55.60
64718;DHT22;62506;46.070;14.492;2023-06-19T12:39:20;24.60;55.70
64718;DHT22;62506;46.070;14.492;2023-06-19T12:41:45;24.60;55.70
64718;DHT22;62506;46.070;14.492;2023-06-19T12:44:11;24.50;55.70
64718;DHT22;62506;46.070;14.492;2023-06-19T12:46:36;24.60;55.80
64718;DHT22;62506;46.070;14.492;2023-06-19T12:49:02;24.60;55.80
64718;DHT22;62506;46.070;14.492;2023-06-19T12:51:27;24.60;55.90
64718;DHT22;62506;46.070;14.492;2023-06-19T12:53:53;24.60;55.70
64718;DHT22;62506;46.070;14.492;2023-06-19T12:56:18;24.60;55.70
64718;DHT22;62506;46.070;14.492;2023-06-19T12:58:44;24.60;55.70
64718;DHT22;62506;46.070;14.492;2023-06-19T13:01:09;24.60;55.70
64718;DHT22;62506;46.070;14.492;2023-06-19T13:03:35;24.50;55.80
64718;DHT22;62506;46.070;14.492;2023-06-19T13:06:00;24.60;55.80
64718;DHT22;62506;46.070;14.492;2023-06-19T13:08:26;24.60;55.80
64718;DHT22;62506;46.070;14.492;2023-06-19T13:10:51;24.60;55.90
64718;DHT22;62506;46.070;14.492;2023-06-19T13:13:17;24.60;55.90
64718;DHT22;62506;46.070;14.492;2023-06-19T13:15:42;24.50;55.80
64718;DHT22;62506;46.070;14.492;2023-06-19T13:18:08;24.60;55.70
64718;DHT22;62506;46.070;14.492;2023-06-19T13:20:33;24.70;55.70
64718;DHT22;62506;46.070;14.492;2023-06-19T13:22:58;24.70;55.60
64718;DHT22;62506;46.070;14.492;2023-06-19T13:25:24;24.70;56.10
64718;DHT22;62506;46.070;14.492;2023-06-19T13:27:49;24.70;56.20
64718;DHT22;62506;46.070;14.492;2023-06-19T13:30:15;24.70;56.20
64718;DHT22;62506;46.070;14.492;2023-06-19T13:32:41;24.70;55.80
64718;DHT22;62506;46.070;14.492;2023-06-19T13:35:07;24.80;56.40
64718;DHT22;62506;46.070;14.492;2023-06-19T13:37:34;24.80;56.60
64718;DHT22;62506;46.070;14.492;2023-06-19T13:40:00;24.80;56.60
64718;DHT22;62506;46.070;14.492;2023-06-19T13:42:26;24.90;57.30
64718;DHT22;62506;46.070;14.492;2023-06-19T13:44:52;24.80;57.10
64718;DHT22;62506;46.070;14.492;2023-06-19T13:47:18;24.90;57.30
64718;DHT22;62506;46.070;14.492;2023-06-19T13:49:43;24.90;57.70
64718;DHT22;62506;46.070;14.492;2023-06-19T13:52:09;25.00;57.90
64718;DHT22;62506;46.070;14.492;2023-06-19T13:54:34;25.00;58.00
64718;DHT22;62506;46.070;14.492;2023-06-19T13:57:00;25.00;58.20
64718;DHT22;62506;46.070;14.492;2023-06-19T13:59:25;25.00;58.70
64718;DHT22;62506;46.070;14.492;2023-06-19T14:01:51;25.00;57.80
64718;DHT22;62506;46.070;14.492;2023-06-19T14:04:16;25.00;58.70
64718;DHT22;62506;46.070;14.492;2023-06-19T14:06:42;25.00;57.90
64718;DHT22;62506;46.070;14.492;2023-06-19T14:09:09;25.00;57.70
64718;DHT22;62506;46.070;14.492;2023-06-19T14:11:34;25.10;57.90
64718;DHT22;62506;46.070;14.492;2023-06-19T14:14:00;25.10;57.80
64718;DHT22;62506;46.070;14.492;2023-06-19T14:16:25;25.10;57.60
64718;DHT22;62506;46.070;14.492;2023-06-19T14:18:51;25.10;57.50
64718;DHT22;62506;46.070;14.492;2023-06-19T14:21:16;25.10;57.60
64718;DHT22;62506;46.070;14.492;2023-06-19T14:23:42;25.10;57.70
64718;DHT22;62506;46.070;14.492;2023-06-19T14:26:10;25.10;57.80
64718;DHT22;62506;46.070;14.492;2023-06-19T14:28:39;25.10;57.70
64718;DHT22;62506;46.070;14.492;2023-06-19T14:31:05;25.10;57.40
64718;DHT22;62506;46.070;14.492;2023-06-19T14:33:30;25.10;57.80
64718;DHT22;62506;46.070;14.492;2023-06-19T14:36:01;25.10;57.50
64718;DHT22;62506;46.070;14.492;2023-06-19T14:38:28;25.10;57.60
64718;DHT22;62506;46.070;14.492;2023-06-19T14:40:57;25.10;57.80
64718;DHT22;62506;46.070;14.492;2023-06-19T14:43:23;25.10;57.80
64718;DHT22;62506;46.070;14.492;2023-06-19T14:45:49;25.10;58.00
64718;DHT22;62506;46.070;14.492;2023-06-19T14:48:14;25.10;57.70
64718;DHT22;62506;46.070;14.492;2023-06-19T14:50:40;25.10;57.50
64718;DHT22;62506;46.070;14.492;2023-06-19T14:53:05;25.10;57.70
64718;DHT22;62506;46.070;14.492;2023-06-19T14:55:31;25.20;57.70
64718;DHT22;62506;46.070;14.492;2023-06-19T14:57:56;25.20;57.80
64718;DHT22;62506;46.070;14.492;2023-06-19T15:00:22;25.20;57.60
64718;DHT22;62506;46.070;14.492;2023-06-19T15:02:48;25.20;57.50
64718;DHT22;62506;46.070;14.492;2023-06-19T15:05:13;25.10;57.60
64718;DHT22;62506;46.070;14.492;2023-06-19T15:07:39;25.10;57.50
64718;DHT22;62506;46.070;14.492;2023-06-19T15:10:04;25.10;57.40
64718;DHT22;62506;46.070;14.492;2023-06-19T15:12:30;25.20;57.30
64718;DHT22;62506;46.070;14.492;2023-06-19T15:14:57;25.20;57.60
64718;DHT22;62506;46.070;14.492;2023-06-19T15:17:23;25.20;57.50
64718;DHT22;62506;46.070;14.492;2023-06-19T15:19:48;25.20;57.30